Time;durP1;ratioP1;P1;durP2;ratioP2;P2;SDS_P1;SDS_P2;PMS_P1;PMS_P2;Temp;Humidity;BMP_temperature;BMP_pressure;BME280_temperature;BME280_humidity;BME280_pressure;Samples;Min_cycle;Max_cycle;Signal;HPM_P1;HPM_P2
2022/04/28 00:00:32;;;;;;;19.17;10.52;;;;;;;18.41;45.49;103080.09;5087238;28;20041;-40
2022/04/28 00:02:59;;;;;;;18.13;9.82;;;;;;;18.39;45.46;103072.16;5086880;28;20079;-41
2022/04/28 00:05:26;;;;;;;19.90;10.52;;;;;;;18.38;45.05;103073.13;5084725;28;20152;-42
2022/04/28 00:07:53;;;;;;;18.33;9.32;;;;;;;18.39;45.20;103082.03;5083790;28;20050;-42
2022/04/28 00:10:19;;;;;;;16.17;9.23;;;;;;;18.38;45.61;103085.69;5084014;28;20047;-41
2022/04/28 00:12:46;;;;;;;18.02;9.60;;;;;;;18.36;45.33;103084.91;5086994;28;20421;-42
2022/04/28 00:15:13;;;;;;;19.45;9.30;;;;;;;18.37;45.29;103089.31;5082803;28;20047;-41
2022/04/28 00:17:39;;;;;;;16.50;8.93;;;;;;;18.36;45.43;103087.59;5088677;28;20040;-40
2022/04/28 00:20:07;;;;;;;18.15;9.77;;;;;;;18.33;45.57;103086.00;5086282;28;20052;-41
2022/04/28 00:22:34;;;;;;;17.25;9.25;;;;;;;18.32;45.27;103080.72;5085921;28;20124;-41
2022/04/28 00:25:02;;;;;;;17.77;9.25;;;;;;;18.32;45.79;103089.63;5084090;28;20366;-42
2022/04/28 00:27:29;;;;;;;16.70;8.63;;;;;;;18.31;45.33;103084.38;5084099;28;20235;-41
2022/04/28 00:29:56;;;;;;;16.35;7.75;;;;;;;18.29;45.59;103080.91;5084718;28;20214;-41
2022/04/28 00:32:23;;;;;;;14.52;7.97;;;;;;;18.29;45.88;103080.91;5085568;28;20378;-40
2022/04/28 00:34:49;;;;;;;13.10;7.55;;;;;;;18.28;45.59;103077.34;5082014;28;20419;-41
2022/04/28 00:37:17;;;;;;;14.63;8.20;;;;;;;18.28;45.54;103074.69;5085643;28;20139;-41
2022/04/28 00:39:44;;;;;;;14.57;7.47;;;;;;;18.26;45.89;103084.66;5081219;28;20326;-41
2022/04/28 00:42:12;;;;;;;14.50;7.57;;;;;;;18.25;45.37;103078.44;5086656;28;20331;-41
2022/04/28 00:44:39;;;;;;;15.75;8.10;;;;;;;18.25;45.42;103081.13;5082795;28;20131;-40
2022/04/28 00:47:07;;;;;;;15.20;7.72;;;;;;;18.25;46.24;103080.25;5085123;28;20359;-40
2022/04/28 00:52:19;;;;;;;15.25;7.28;;;;;;;18.23;45.57;103084.88;5087688;28;20048;-41
2022/04/28 00:54:49;;;;;;;11.50;6.78;;;;;;;18.22;45.75;103085.81;5088773;28;20518;-41
2022/04/28 00:57:17;;;;;;;14.48;7.00;;;;;;;18.20;45.89;103085.91;5086596;28;20028;-42
2022/04/28 00:59:45;;;;;;;14.02;6.97;;;;;;;18.19;45.81;103094.94;5089381;28;20058;-41
2022/04/28 01:02:12;;;;;;;10.32;6.18;;;;;;;18.18;45.52;103087.84;5083492;28;20050;-42
2022/04/28 01:04:39;;;;;;;12.20;6.43;;;;;;;18.19;46.03;103086.88;5086892;28;20482;-42
2022/04/28 01:07:06;;;;;;;12.75;6.85;;;;;;;18.18;45.94;103087.00;5087095;28;20242;-41
2022/04/28 01:09:36;;;;;;;11.77;6.50;;;;;;;18.18;46.31;103084.31;5083717;28;20040;-42
2022/04/28 01:12:08;;;;;;;12.00;6.60;;;;;;;18.17;46.05;103088.81;5084433;28;20457;-41
2022/04/28 01:14:34;;;;;;;13.00;5.90;;;;;;;18.15;45.92;103084.50;5088301;28;20126;-41
2022/04/28 01:17:02;;;;;;;10.57;5.75;;;;;;;18.15;45.84;103085.34;5084617;28;20071;-41
2022/04/28 01:19:29;;;;;;;10.77;5.80;;;;;;;18.13;46.29;103081.94;5084961;28;20075;-41
2022/04/28 01:21:56;;;;;;;7.88;5.15;;;;;;;18.12;45.99;103074.81;5082908;28;20048;-41
2022/04/28 01:24:23;;;;;;;12.55;5.25;;;;;;;18.14;46.25;103074.72;5078005;28;20070;-42
2022/04/28 01:26:53;;;;;;;9.38;5.25;;;;;;;18.12;45.83;103073.97;5078396;28;20512;-41
2022/04/28 01:29:20;;;;;;;9.18;5.25;;;;;;;18.10;46.14;103079.44;5084383;28;20040;-41
2022/04/28 01:31:47;;;;;;;11.20;6.07;;;;;;;18.09;46.15;103079.50;5085796;28;20087;-41
2022/04/28 01:34:13;;;;;;;9.68;4.63;;;;;;;18.09;46.25;103080.41;5080710;28;20050;-41
2022/04/28 01:36:40;;;;;;;9.73;5.18;;;;;;;18.07;46.02;103079.63;5078059;28;20058;-41
2022/04/28 01:39:10;;;;;;;9.80;5.30;;;;;;;18.08;46.02;103084.03;5083080;28;20055;-41
2022/04/28 01:41:37;;;;;;;9.27;5.25;;;;;;;18.08;46.57;103080.47;5086783;28;20040;-41
2022/04/28 01:44:03;;;;;;;10.98;5.28;;;;;;;18.07;46.24;103079.63;5085098;28;20048;-41
2022/04/28 01:46:30;;;;;;;10.63;4.45;;;;;;;18.06;46.41;103083.28;5080947;28;20040;-41
2022/04/28 01:48:57;;;;;;;10.60;5.43;;;;;;;18.05;46.52;103078.88;5081368;28;20371;-40
2022/04/28 01:56:54;;;;;;;8.55;4.75;;;;;;;18.03;46.56;103086.16;5080270;28;20052;-41
2022/04/28 01:59:20;;;;;;;9.95;4.35;;;;;;;18.02;46.50;103089.81;5080141;28;20047;-41
2022/04/28 02:01:47;;;;;;;8.57;4.35;;;;;;;18.00;46.71;103087.19;5086700;28;20040;-40
2022/04/28 02:04:13;;;;;;;13.93;4.18;;;;;;;18.01;46.74;103096.13;5083409;28;20051;-40
2022/04/28 02:06:42;;;;;;;8.88;4.65;;;;;;;18.00;46.45;103097.94;5087669;28;20448;-40
2022/04/28 02:09:09;;;;;;;9.05;4.30;;;;;;;17.99;46.48;103101.59;5082602;28;20048;-40
2022/04/28 02:11:35;;;;;;;7.10;3.58;;;;;;;17.99;46.78;103095.34;5086548;28;20051;-40
2022/04/28 02:14:02;;;;;;;9.38;4.05;;;;;;;17.99;46.61;103098.03;5082637;28;20055;-40
2022/04/28 02:16:28;;;;;;;7.03;3.92;;;;;;;17.98;46.49;103093.66;5079538;28;20070;-41
2022/04/28 02:18:55;;;;;;;8.40;4.15;;;;;;;17.96;46.72;103090.19;5082292;28;20050;-40
2022/04/28 02:21:21;;;;;;;7.80;4.00;;;;;;;17.97;46.44;103105.34;5088111;28;20052;-40
2022/04/28 02:23:48;;;;;;;7.63;3.85;;;;;;;17.96;46.53;103095.56;5079841;28;20805;-41
2022/04/28 02:26:14;;;;;;;6.97;3.97;;;;;;;17.95;46.84;103097.38;5080579;28;20418;-40
2022/04/28 02:28:41;;;;;;;8.05;3.92;;;;;;;17.94;46.66;103108.22;5080091;28;20118;-40
2022/04/28 02:31:07;;;;;;;7.57;4.15;;;;;;;17.94;46.46;103102.84;5085566;28;20062;-40
2022/04/28 02:33:34;;;;;;;5.25;3.50;;;;;;;17.92;46.31;103099.38;5083512;28;20167;-41
2022/04/28 02:36:01;;;;;;;9.07;3.72;;;;;;;17.91;46.59;103095.00;5082303;28;20414;-40
2022/04/28 02:38:27;;;;;;;6.82;3.88;;;;;;;17.90;46.59;103093.28;5085864;28;20490;-41
2022/04/28 02:40:54;;;;;;;6.30;3.50;;;;;;;17.90;46.55;103102.19;5087346;28;20048;-40
2022/04/28 02:43:20;;;;;;;6.35;3.15;;;;;;;17.89;46.49;103099.56;5080782;28;20412;-41
2022/04/28 02:45:48;;;;;;;5.78;3.60;;;;;;;17.89;46.90;103100.47;5087619;28;20043;-40
2022/04/28 02:48:15;;;;;;;6.97;3.30;;;;;;;17.87;46.70;103090.78;5085376;28;20075;-40
2022/04/28 02:50:42;;;;;;;5.63;3.15;;;;;;;17.85;46.46;103104.31;5084845;28;20480;-40
2022/04/28 02:53:08;;;;;;;6.80;3.60;;;;;;;17.85;46.87;103095.38;5085548;28;20045;-41
2022/04/28 02:55:35;;;;;;;5.60;3.17;;;;;;;17.84;46.34;103101.69;5089342;28;20051;-42
2022/04/28 02:58:01;;;;;;;6.38;2.88;;;;;;;17.84;46.86;103096.34;5088315;28;20433;-41
2022/04/28 03:00:28;;;;;;;6.78;2.85;;;;;;;17.83;46.65;103097.31;5087736;28;20062;-40
2022/04/28 03:02:54;;;;;;;5.25;2.95;;;;;;;17.82;46.58;103098.25;5088198;28;20050;-40
2022/04/28 03:05:21;;;;;;;8.05;3.55;;;;;;;17.81;46.79;103097.41;5086626;28;20495;-41
2022/04/28 03:13:11;;;;;;;8.27;3.20;;;;;;;17.79;46.62;103096.63;5083318;28;20059;-40
2022/04/28 03:15:39;;;;;;;5.32;3.00;;;;;;;17.79;47.08;103098.44;5079463;28;20147;-40
2022/04/28 03:18:06;;;;;;;9.32;3.08;;;;;;;17.78;47.04;103096.75;5087058;28;20058;-40
2022/04/28 03:20:32;;;;;;;5.97;3.00;;;;;;;17.76;46.71;103100.34;5088960;28;20525;-40
2022/04/28 03:22:59;;;;;;;5.25;2.85;;;;;;;17.75;46.85;103097.78;5087001;28;20396;-40
2022/04/28 03:25:25;;;;;;;7.18;3.35;;;;;;;17.74;46.63;103099.59;5084010;28;20040;-40
2022/04/28 03:27:52;;;;;;;5.10;2.90;;;;;;;17.74;46.74;103099.59;5085700;28;20036;-42
2022/04/28 03:30:18;;;;;;;6.22;2.95;;;;;;;17.72;47.36;103093.44;5085779;28;20045;-40
2022/04/28 03:32:45;;;;;;;6.57;3.10;;;;;;;17.74;46.70;103104.97;5084646;28;20568;-41
2022/04/28 03:35:11;;;;;;;4.57;2.63;;;;;;;17.77;46.77;103103.94;5086297;28;20064;-40
2022/04/28 03:37:38;;;;;;;5.10;2.78;;;;;;;17.82;46.77;103100.94;5087384;28;20656;-40
2022/04/28 03:40:05;;;;;;;4.13;2.50;;;;;;;17.87;46.72;103104.19;5085812;28;20139;-40
2022/04/28 03:42:33;;;;;;;6.45;2.38;;;;;;;17.94;46.64;103102.84;5088739;28;20441;-40
2022/04/28 03:44:59;;;;;;;4.05;2.45;;;;;;;18.00;46.75;103100.63;5085647;28;20058;-40
2022/04/28 03:47:32;;;;;;;4.72;2.45;;;;;;;18.08;46.36;103105.50;5088664;28;20234;-40
2022/04/28 03:49:59;;;;;;;5.13;2.65;;;;;;;18.17;46.59;103096.88;5087197;28;20083;-40
2022/04/28 03:52:25;;;;;;;4.55;2.60;;;;;;;18.23;46.15;103103.66;5088003;28;20079;-40
2022/04/28 03:54:52;;;;;;;5.25;2.80;;;;;;;18.30;46.26;103094.25;5087439;28;20056;-41
2022/04/28 03:57:18;;;;;;;5.47;2.75;;;;;;;18.38;46.11;103101.78;5086986;28;20279;-40
2022/04/28 03:59:45;;;;;;;6.07;2.65;;;;;;;18.45;45.81;103105.78;5089435;28;20036;-41
2022/04/28 04:02:12;;;;;;;11.18;2.88;;;;;;;18.51;45.85;103105.38;5089404;28;20138;-40
2022/04/28 04:04:39;;;;;;;8.38;2.90;;;;;;;18.57;45.67;103102.28;5084197;28;20139;-40
2022/04/28 04:07:07;;;;;;;7.63;2.55;;;;;;;18.65;45.50;103102.66;5084667;28;20044;-40
2022/04/28 04:09:34;;;;;;;7.75;2.42;;;;;;;18.70;45.57;103105.06;5081243;28;20354;-41
2022/04/28 04:12:00;;;;;;;8.23;2.85;;;;;;;18.76;45.71;103106.47;5080170;28;20042;-41
2022/04/28 04:14:27;;;;;;;5.70;2.33;;;;;;;18.79;45.45;103107.13;5082512;28;20509;-40
2022/04/28 04:16:53;;;;;;;6.55;2.50;;;;;;;18.82;45.30;103106.06;5078671;28;20066;-41
2022/04/28 04:19:20;;;;;;;5.78;2.45;;;;;;;18.82;45.07;103112.28;5079801;28;20040;-41
2022/04/28 04:21:46;;;;;;;9.05;2.40;;;;;;;18.81;45.37;103102.50;5084539;28;20526;-41
2022/04/28 04:24:13;;;;;;;5.95;2.97;;;;;;;18.82;44.96;103106.06;5090435;28;20052;-40
2022/04/28 04:26:39;;;;;;;6.30;2.42;;;;;;;18.81;45.20;103110.56;5091126;28;20514;-41
2022/04/28 04:29:06;;;;;;;5.82;2.53;;;;;;;18.78;45.25;103097.34;5090794;28;20155;-41
2022/04/28 04:34:17;;;;;;;4.78;2.15;;;;;;;18.71;45.37;103118.38;5085176;28;20042;-41
2022/04/28 04:36:44;;;;;;;4.97;2.75;;;;;;;18.67;45.00;103119.50;5089938;28;20457;-40
2022/04/28 04:39:10;;;;;;;6.75;2.88;;;;;;;18.64;44.82;103119.72;5086381;28;20044;-40
2022/04/28 04:41:37;;;;;;;8.55;2.70;;;;;;;18.62;45.39;103123.47;5086535;28;20052;-40
2022/04/28 04:44:04;;;;;;;4.80;3.00;;;;;;;18.57;45.35;103120.22;5086168;28;20396;-40
2022/04/28 04:46:30;;;;;;;7.72;2.83;;;;;;;18.54;45.38;103121.31;5086369;28;20054;-40
2022/04/28 04:48:57;;;;;;;6.57;2.40;;;;;;;18.52;45.46;103130.41;5083895;28;20044;-40
2022/04/28 04:51:23;;;;;;;6.10;2.80;;;;;;;18.48;45.62;103130.59;5083817;28;20050;-42
2022/04/28 04:53:50;;;;;;;5.95;3.00;;;;;;;18.45;45.14;103130.84;5080860;28;20074;-40
2022/04/28 04:56:16;;;;;;;6.38;2.67;;;;;;;18.43;45.26;103131.88;5087112;28;20147;-40
2022/04/28 04:58:43;;;;;;;6.80;2.90;;;;;;;18.42;45.45;103135.53;5083688;28;20067;-41
2022/04/28 05:01:09;;;;;;;9.88;2.63;;;;;;;18.41;45.48;103140.06;5084323;28;20159;-40
2022/04/28 05:03:36;;;;;;;9.18;2.53;;;;;;;18.40;45.35;103146.34;5087933;28;20082;-41
2022/04/28 05:06:03;;;;;;;6.65;3.00;;;;;;;18.40;45.78;103141.00;5086986;28;20670;-40
2022/04/28 05:08:29;;;;;;;7.15;2.53;;;;;;;18.41;45.04;103134.69;5085713;28;20048;-41
2022/04/28 05:10:56;;;;;;;4.60;2.63;;;;;;;18.40;45.31;103142.81;5084996;28;20058;-41
2022/04/28 05:13:22;;;;;;;7.45;2.92;;;;;;;18.40;45.69;103148.19;5086169;28;20102;-41
2022/04/28 05:15:49;;;;;;;10.30;3.20;;;;;;;18.40;45.83;103157.09;5086808;28;20062;-41
2022/04/28 05:18:15;;;;;;;5.72;2.38;;;;;;;18.40;45.05;103153.56;5089004;28;20036;-41
2022/04/28 05:20:42;;;;;;;6.00;2.80;;;;;;;18.39;45.68;103162.59;5084028;28;20044;-41
2022/04/28 05:23:08;;;;;;;5.80;2.65;;;;;;;18.39;45.35;103167.94;5085130;28;20079;-42
2022/04/28 05:25:36;;;;;;;7.82;2.65;;;;;;;18.38;45.53;103174.28;5087336;28;20044;-41
2022/04/28 05:28:03;;;;;;;6.10;2.60;;;;;;;18.37;45.38;103175.22;5082108;28;20105;-40
2022/04/28 05:30:29;;;;;;;7.13;3.10;;;;;;;18.34;45.32;103179.00;5085917;28;20036;-39
2022/04/28 05:32:56;;;;;;;5.15;2.50;;;;;;;18.31;44.97;103173.81;5082819;28;20054;-39
2022/04/28 05:35:23;;;;;;;4.95;2.75;;;;;;;18.31;44.87;103181.88;5084539;28;20036;-40
2022/04/28 05:37:49;;;;;;;5.55;2.67;;;;;;;18.30;45.05;103179.28;5085100;28;20035;-40
2022/04/28 05:40:16;;;;;;;5.10;2.38;;;;;;;18.27;45.41;103187.53;5081171;28;20040;-40
2022/04/28 05:45:42;;;;;;;6.25;2.80;;;;;;;18.22;45.33;103199.44;5083357;28;20052;-40
2022/04/28 05:48:10;;;;;;;5.95;3.00;;;;;;;18.21;45.23;103196.81;5084748;28;20072;-40
2022/04/28 05:50:40;;;;;;;8.18;3.28;;;;;;;18.19;45.18;103199.63;5086557;28;20072;-40
2022/04/28 05:53:07;;;;;;;5.57;2.75;;;;;;;18.18;45.30;103205.94;5085893;28;20051;-40
2022/04/28 05:55:34;;;;;;;4.18;2.33;;;;;;;18.16;45.58;103209.69;5088165;28;20310;-40
2022/04/28 05:58:01;;;;;;;8.25;3.10;;;;;;;18.15;45.59;103211.50;5086147;28;20047;-40
2022/04/28 06:00:28;;;;;;;5.50;3.10;;;;;;;18.14;45.67;103206.25;5087028;28;20054;-40
2022/04/28 06:02:55;;;;;;;4.95;2.50;;;;;;;18.11;45.23;103209.97;5086235;28;20497;-40
2022/04/28 06:05:22;;;;;;;5.55;2.80;;;;;;;18.11;45.76;103209.97;5085784;28;20162;-41
2022/04/28 06:07:49;;;;;;;5.35;2.45;;;;;;;18.08;45.38;103212.84;5088044;28;20275;-40
2022/04/28 06:10:16;;;;;;;4.15;2.45;;;;;;;18.07;45.67;103208.44;5086984;28;20445;-41
2022/04/28 06:12:42;;;;;;;4.60;2.50;;;;;;;18.05;45.89;103218.44;5084724;28;20050;-41
2022/04/28 06:15:10;;;;;;;6.20;2.47;;;;;;;18.04;45.50;103215.81;5085252;28;20448;-40
2022/04/28 06:17:36;;;;;;;5.43;2.38;;;;;;;18.03;45.43;103225.69;5084172;28;20312;-41
2022/04/28 06:20:04;;;;;;;5.28;2.50;;;;;;;18.02;45.47;103231.16;5086866;28;20143;-41
2022/04/28 06:22:46;;;;;;;4.40;2.67;;;;;;;18.00;45.34;103220.50;5085714;28;20074;-40
2022/04/28 06:25:13;;;;;;;5.45;2.78;;;;;;;18.00;45.59;103229.41;5084185;28;20043;-41
2022/04/28 06:27:40;;;;;;;5.90;2.63;;;;;;;17.99;45.43;103233.06;5082347;28;20044;-41
2022/04/28 06:30:07;;;;;;;6.00;2.80;;;;;;;17.99;45.60;103225.03;5081386;28;20064;-41
2022/04/28 06:32:33;;;;;;;4.03;2.38;;;;;;;18.00;45.63;103233.94;5083296;28;20051;-40
2022/04/28 06:35:00;;;;;;;4.38;2.38;;;;;;;17.99;45.55;103235.75;5085177;28;20044;-41
2022/04/28 06:37:27;;;;;;;5.65;2.40;;;;;;;17.99;45.52;103245.63;5086062;28;20082;-40
2022/04/28 06:39:54;;;;;;;4.85;1.98;;;;;;;17.98;45.65;103249.28;5084050;28;20071;-41
2022/04/28 06:42:20;;;;;;;5.63;2.50;;;;;;;17.98;45.93;103249.28;5083209;28;20420;-41
2022/04/28 06:44:47;;;;;;;5.32;2.30;;;;;;;17.96;46.11;103246.66;5080015;28;20066;-41
2022/04/28 06:47:14;;;;;;;5.18;2.42;;;;;;;17.97;45.86;103247.56;5078520;28;20079;-40
2022/04/28 06:49:41;;;;;;;4.53;2.25;;;;;;;17.96;45.92;103245.81;5082974;28;20072;-40
2022/04/28 06:52:10;;;;;;;4.35;2.25;;;;;;;17.97;45.89;103251.09;5087794;28;20139;-40
2022/04/28 06:54:38;;;;;;;5.05;2.22;;;;;;;17.98;45.63;103257.31;5083668;28;20498;-41
2022/04/28 06:57:05;;;;;;;4.85;2.38;;;;;;;17.98;45.28;103254.63;5084941;28;20043;-41
2022/04/28 06:59:32;;;;;;;3.53;2.10;;;;;;;17.98;45.66;103263.56;5084895;28;20135;-41
2022/04/28 07:01:58;;;;;;;4.72;2.25;;;;;;;17.99;45.62;103264.41;5086860;28;20113;-41
2022/04/28 07:04:25;;;;;;;3.15;1.95;;;;;;;17.99;45.64;103267.09;5084772;28;20047;-40
2022/04/28 07:06:52;;;;;;;6.47;2.60;;;;;;;18.00;45.74;103266.13;5084246;28;20036;-41
2022/04/28 07:09:19;;;;;;;5.22;2.25;;;;;;;18.00;45.85;103272.34;5080281;28;20044;-40
2022/04/28 07:11:45;;;;;;;4.68;2.45;;;;;;;18.01;45.38;103270.56;5082449;28;20518;-40
2022/04/28 07:14:13;;;;;;;4.05;2.05;;;;;;;18.02;45.69;103277.66;5082321;28;20127;-40
2022/04/28 07:16:40;;;;;;;5.10;2.58;;;;;;;18.02;45.20;103280.34;5083371;28;20056;-40
2022/04/28 07:19:06;;;;;;;5.28;2.15;;;;;;;18.03;45.61;103279.38;5082547;28;20040;-40
2022/04/28 07:21:34;;;;;;;6.18;2.33;;;;;;;18.04;45.37;103285.59;5082632;28;20055;-40
2022/04/28 07:24:01;;;;;;;4.50;2.50;;;;;;;18.06;45.50;103283.69;5085887;28;20083;-41
2022/04/28 07:26:28;;;;;;;3.75;2.17;;;;;;;18.06;45.67;103300.66;5086931;28;20323;-40
2022/04/28 07:28:55;;;;;;;5.63;2.22;;;;;;;18.07;45.45;103296.16;5081864;28;20111;-40
2022/04/28 07:31:21;;;;;;;5.95;2.00;;;;;;;18.09;45.20;103304.94;5087988;28;20048;-41
2022/04/28 07:33:48;;;;;;;3.92;2.05;;;;;;;18.10;45.60;103304.88;5092143;28;20051;-41
2022/04/28 07:36:15;;;;;;;3.42;1.77;;;;;;;18.12;44.97;103302.94;5082935;28;20486;-41
2022/04/28 07:38:42;;;;;;;3.53;1.77;;;;;;;18.15;45.20;103308.13;5084912;28;20131;-40
2022/04/28 07:41:08;;;;;;;4.13;2.10;;;;;;;18.15;45.02;103308.13;5086161;28;20131;-40
2022/04/28 07:43:35;;;;;;;5.47;2.35;;;;;;;18.17;45.23;103306.22;5085264;28;20419;-40
2022/04/28 07:46:01;;;;;;;4.72;1.70;;;;;;;18.17;45.23;103314.28;5087893;28;20063;-40
2022/04/28 07:48:28;;;;;;;3.78;1.67;;;;;;;18.19;44.99;103308.81;5086090;28;20488;-40
2022/04/28 07:50:55;;;;;;;4.82;2.05;;;;;;;18.19;45.22;103307.00;5083844;28;20076;-41
2022/04/28 07:53:21;;;;;;;4.18;2.17;;;;;;;18.20;45.13;103303.34;5090396;28;20097;-40
2022/04/28 07:56:10;;;;;;;3.72;1.67;;;;;;;18.22;45.00;103311.31;5088213;28;20115;-41
2022/04/28 07:58:36;;;;;;;4.82;2.05;;;;;;;18.22;45.15;103304.13;5086885;28;20036;-40
2022/04/28 08:01:04;;;;;;;3.53;2.10;;;;;;;18.24;45.56;103315.59;5080632;28;20122;-40
2022/04/28 08:03:31;;;;;;;3.15;1.55;;;;;;;18.24;44.99;103315.59;5087491;28;20085;-40
2022/04/28 08:05:58;;;;;;;5.35;2.08;;;;;;;18.28;45.25;103320.78;5087526;28;20047;-41
2022/04/28 08:08:24;;;;;;;2.47;1.65;;;;;;;18.29;45.36;103315.34;5085355;28;20037;-41
2022/04/28 08:10:51;;;;;;;5.75;1.95;;;;;;;18.31;45.20;103326.84;5086419;28;20059;-40
2022/04/28 08:13:18;;;;;;;4.00;1.80;;;;;;;18.32;45.42;103333.94;5084316;28;20151;-40
2022/04/28 08:15:44;;;;;;;3.55;1.63;;;;;;;18.35;45.21;103327.53;5086623;28;20044;-39
2022/04/28 08:18:11;;;;;;;2.78;1.48;;;;;;;18.36;45.33;103327.41;5084762;28;20296;-39
2022/04/28 08:20:41;;;;;;;4.13;1.80;;;;;;;18.37;45.57;103330.97;5087180;28;20044;-39
2022/04/28 08:23:08;;;;;;;3.95;1.50;;;;;;;18.37;45.00;103333.66;5088323;28;20083;-39
2022/04/28 08:25:35;;;;;;;4.65;1.90;;;;;;;18.39;45.84;103335.28;5088393;28;20123;-39
2022/04/28 08:28:01;;;;;;;5.15;1.73;;;;;;;18.40;44.94;103333.47;5082830;28;20051;-40
2022/04/28 08:30:28;;;;;;;6.72;1.67;;;;;;;18.41;45.03;103340.53;5085336;28;20071;-39
2022/04/28 08:32:54;;;;;;;5.13;1.90;;;;;;;18.41;45.31;103335.19;5088304;28;20399;-39
2022/04/28 08:35:21;;;;;;;4.15;1.75;;;;;;;18.42;45.01;103336.94;5088228;28;20039;-39
2022/04/28 08:37:48;;;;;;;3.38;1.65;;;;;;;18.43;45.06;103330.59;5080542;28;20392;-39
2022/04/28 08:40:15;;;;;;;5.72;1.70;;;;;;;18.43;45.46;103328.75;5083867;28;20047;-40
2022/04/28 08:42:42;;;;;;;6.13;1.90;;;;;;;18.44;45.11;103332.31;5087108;28;20471;-40
2022/04/28 08:45:09;;;;;;;5.63;1.42;;;;;;;18.44;45.07;103333.16;5084139;28;20036;-40
2022/04/28 08:47:35;;;;;;;3.88;1.50;;;;;;;18.46;45.16;103327.72;5082496;28;20135;-40
2022/04/28 08:50:02;;;;;;;3.13;1.60;;;;;;;18.47;44.92;103330.31;5084036;28;20094;-39
2022/04/28 08:52:29;;;;;;;2.65;1.20;;;;;;;18.47;45.17;103324.94;5082481;28;20051;-40
2022/04/28 08:54:56;;;;;;;2.65;1.67;;;;;;;18.48;45.34;103323.09;5083580;28;20051;-40
2022/04/28 08:57:23;;;;;;;4.85;1.70;;;;;;;18.49;45.29;103323.03;5083545;28;20119;-40
2022/04/28 08:59:51;;;;;;;3.92;2.25;;;;;;;18.50;44.98;103330.13;5080986;28;20375;-39
2022/04/28 09:02:29;;;;;;;5.38;1.70;;;;;;;18.52;45.04;103327.31;5088412;28;20122;-39
2022/04/28 09:05:07;;;;;;;5.88;1.20;;;;;;;18.54;45.33;103328.09;5085597;28;20109;-39
2022/04/28 09:07:39;;;;;;;2.47;1.30;;;;;;;18.56;45.81;103326.16;5087636;28;20050;-39
2022/04/28 09:10:32;;;;;;;4.93;1.60;;;;;;;18.58;45.54;103324.25;5085631;28;20129;-39
2022/04/28 09:15:51;;;;;;;3.92;2.33;;;;;;;18.65;45.51;103324.72;5084625;28;20122;-39
2022/04/28 09:18:20;;;;;;;4.40;1.80;;;;;;;18.67;45.94;103318.31;5086238;28;20064;-40
2022/04/28 09:20:48;;;;;;;3.65;1.23;;;;;;;18.69;45.71;103324.47;5087563;28;20044;-41
2022/04/28 09:23:15;;;;;;;3.80;1.58;;;;;;;18.72;45.95;103316.22;5086062;28;20055;-39
2022/04/28 09:25:42;;;;;;;4.47;1.67;;;;;;;18.76;45.79;103321.41;5088773;28;20044;-39
2022/04/28 09:28:10;;;;;;;2.92;1.50;;;;;;;18.80;45.85;103318.41;5086443;28;20241;-40
2022/04/28 09:30:49;;;;;;;3.22;1.50;;;;;;;18.83;45.65;103312.84;5085269;28;20076;-40
2022/04/28 09:33:20;;;;;;;4.88;1.60;;;;;;;18.88;45.53;103308.03;5082984;28;20045;-42
2022/04/28 09:35:53;;;;;;;4.55;1.70;;;;;;;18.94;45.81;103306.78;5089258;28;20051;-40
2022/04/28 09:38:20;;;;;;;3.38;1.38;;;;;;;19.01;44.96;103317.97;5087959;28;20055;-40
2022/04/28 09:43:55;;;;;;;5.65;1.70;;;;;;;19.14;45.21;103298.28;5082056;28;20000;-40
2022/04/28 09:46:28;;;;;;;4.03;1.52;;;;;;;19.18;45.25;103291.75;5086562;28;20054;-41
2022/04/28 09:48:55;;;;;;;3.95;1.70;;;;;;;19.23;44.94;103305.72;5085224;28;20075;-41
2022/04/28 09:51:23;;;;;;;2.97;1.50;;;;;;;19.29;44.66;103301.75;5086886;28;20134;-41
2022/04/28 09:53:53;;;;;;;2.72;1.50;;;;;;;19.33;44.65;103303.28;5087172;28;20097;-41
2022/04/28 09:56:28;;;;;;;3.97;1.48;;;;;;;19.38;45.14;103292.25;5084261;28;20330;-41
2022/04/28 09:59:01;;;;;;;4.65;1.45;;;;;;;19.43;45.11;103298.16;5087788;28;20050;-42
2022/04/28 10:01:28;;;;;;;4.35;1.30;;;;;;;19.46;44.98;103290.75;5090203;28;20134;-41
2022/04/28 10:03:57;;;;;;;1.83;1.13;;;;;;;19.51;44.60;103298.50;5085528;28;20079;-42
2022/04/28 10:06:25;;;;;;;3.50;1.60;;;;;;;19.54;44.71;103295.63;5089930;28;20369;-41
2022/04/28 10:08:52;;;;;;;2.88;1.58;;;;;;;19.59;44.28;103295.31;5084087;28;20052;-41
2022/04/28 10:11:23;;;;;;;2.70;1.35;;;;;;;19.63;44.72;103291.47;5086962;28;20382;-42
2022/04/28 10:13:51;;;;;;;5.55;1.60;;;;;;;19.65;44.26;103290.38;5087891;28;20101;-42
2022/04/28 10:16:20;;;;;;;4.32;1.55;;;;;;;19.69;44.57;103294.59;5086649;28;20384;-42
2022/04/28 10:18:54;;;;;;;2.25;1.30;;;;;;;19.72;43.85;103282.75;5085481;28;20048;-41
2022/04/28 10:21:37;;;;;;;1.95;1.30;;;;;;;19.76;43.99;103278.03;5088514;28;20047;-42
2022/04/28 10:33:03;;;;;;;3.80;1.77;;;;;;;19.87;44.30;103284.41;5089837;28;20048;-41
2022/04/28 10:35:50;;;;;;;4.18;1.30;;;;;;;19.91;43.74;103274.28;5026053;28;20105;-42
2022/04/28 10:39:09;;;;;;;3.55;1.48;;;;;;;19.93;43.88;103278.56;5084390;28;20054;-42
2022/04/28 10:41:36;;;;;;;3.22;1.33;;;;;;;19.99;44.23;103281.84;5077107;28;20067;-42
2022/04/28 10:44:28;;;;;;;1.95;1.23;;;;;;;19.99;44.14;103276.44;5088401;28;20043;-42
2022/04/28 10:47:02;;;;;;;2.40;1.40;;;;;;;20.01;43.75;103261.88;5088580;28;20066;-41
2022/04/28 10:49:36;;;;;;;;;;;;;;;20.04;43.32;103277.84;5088562;28;20051;-42
2022/04/28 10:52:04;;;;;;;2.15;1.45;;;;;;;20.07;43.81;103268.69;5089204;28;19977;-43
2022/04/28 10:54:43;;;;;;;3.35;1.52;;;;;;;20.08;43.50;103267.72;5087656;28;20040;-42
2022/04/28 10:57:12;;;;;;;3.33;1.50;;;;;;;20.09;43.49;103262.22;5086476;28;20152;-41
2022/04/28 10:59:40;;;;;;;2.25;1.42;;;;;;;20.12;43.85;103271.91;5081126;28;20048;-42
2022/04/28 11:02:11;;;;;;;3.17;1.27;;;;;;;20.13;43.74;103273.63;5093880;28;20126;-42
2022/04/28 11:04:39;;;;;;;3.17;1.65;;;;;;;20.15;44.02;103277.94;5092866;28;20056;-42
2022/04/28 11:07:29;;;;;;;4.72;1.50;;;;;;;20.16;43.46;103276.13;5094438;28;20043;-41
2022/04/28 11:10:07;;;;;;;3.95;1.52;;;;;;;20.19;43.20;103279.44;5088828;28;20383;-42
2022/04/28 11:12:35;;;;;;;4.35;1.77;;;;;;;20.20;43.76;103273.09;5087888;28;20138;-43
2022/04/28 11:15:10;;;;;;;2.92;1.33;;;;;;;20.22;43.88;103270.28;5087444;28;20067;-42
2022/04/28 11:17:39;;;;;;;3.22;1.33;;;;;;;20.25;43.18;103271.91;5092466;28;20123;-43
2022/04/28 11:20:21;;;;;;;4.80;1.55;;;;;;;20.27;43.66;103280.75;5089866;28;20141;-41
2022/04/28 11:22:54;;;;;;;2.47;1.15;;;;;;;20.28;42.98;103275.25;5085365;28;20170;-41
2022/04/28 11:25:22;;;;;;;;;;;;;;;20.30;43.18;103269.72;5087490;28;20040;-41
2022/04/28 11:27:51;;;;;;;3.65;1.25;;;;;;;20.33;43.15;103270.38;5089084;28;19920;-41
2022/04/28 11:30:21;;;;;;;4.10;1.45;;;;;;;20.34;42.74;103269.44;5087817;28;20140;-42
2022/04/28 11:32:55;;;;;;;2.20;1.13;;;;;;;20.37;42.90;103262.94;5090039;28;20048;-41
2022/04/28 11:35:22;;;;;;;3.08;1.35;;;;;;;20.37;43.42;103265.63;5085584;28;20419;-42
2022/04/28 11:37:56;;;;;;;5.93;1.30;;;;;;;20.38;43.52;103252.06;5091465;28;20048;-41
2022/04/28 11:40:24;;;;;;;8.18;2.10;;;;;;;20.41;43.28;103259.06;5091346;28;20528;-42
2022/04/28 11:42:57;;;;;;;10.90;2.15;;;;;;;20.42;42.76;103260.78;5092100;28;20305;-42
2022/04/28 11:45:24;;;;;;;6.88;2.03;;;;;;;20.43;42.39;103257.13;5092763;28;20127;-43
2022/04/28 11:47:53;;;;;;;6.90;2.00;;;;;;;20.45;42.25;103264.09;5088710;28;20048;-42
2022/04/28 11:50:22;;;;;;;9.85;1.73;;;;;;;20.46;42.14;103262.28;5089714;28;20086;-42
2022/04/28 11:53:18;;;;;;;17.08;1.83;;;;;;;20.45;42.67;103258.72;5093090;28;20326;-42
2022/04/28 11:55:48;;;;;;;10.35;1.95;;;;;;;20.49;42.14;103259.41;5079389;28;20056;-43
2022/04/28 11:58:17;;;;;;;10.50;2.88;;;;;;;20.50;42.29;103261.09;5085325;28;20127;-43
2022/04/28 12:00:47;;;;;;;9.57;2.38;;;;;;;20.50;40.93;103262.94;5087820;28;20036;-42
2022/04/28 12:03:26;;;;;;;6.53;1.98;;;;;;;20.50;40.79;103263.81;5093099;28;20514;-42